createdAt,value
2023-03-11T00:02:15.767Z,99597.09
2023-03-11T00:04:42.633Z,99600.53
2023-03-11T00:07:09.975Z,99605.59
2023-03-11T00:09:36.715Z,99614.69
2023-03-11T00:12:03.971Z,99612.75
2023-03-11T00:14:30.479Z,99619.13
2023-03-11T00:16:57.142Z,99618.59
2023-03-11T00:19:23.653Z,99631.13
2023-03-11T00:21:50.179Z,99635.56
2023-03-11T00:24:16.633Z,99647.59
2023-03-11T00:26:43.330Z,99654.88
2023-03-11T00:29:09.822Z,99661.47
2023-03-11T00:31:36.279Z,99660.78
2023-03-11T00:34:02.834Z,99661.09
2023-03-11T00:36:36.698Z,99668.13
2023-03-11T00:39:06.713Z,99660.97
2023-03-11T00:41:34.550Z,99664.78
2023-03-11T00:44:01.555Z,99677.31
2023-03-11T00:46:29.806Z,99681.47
2023-03-11T00:48:56.813Z,99687.47
2023-03-11T00:51:23.292Z,99683.47
2023-03-11T00:53:49.757Z,99684.91
2023-03-11T00:56:16.432Z,99684.28
2023-03-11T00:58:44.407Z,99696.88
2023-03-11T01:01:13.769Z,99700.06
2023-03-11T01:03:40.664Z,99685.13
2023-03-11T01:06:07.606Z,99701.59
2023-03-11T01:08:34.410Z,99706.59
2023-03-11T01:11:01.484Z,99714.72
2023-03-11T01:13:29.114Z,99711.97
2023-03-11T01:15:56.492Z,99721.38
2023-03-11T01:18:23.438Z,99721.53
2023-03-11T01:20:50.414Z,99735.69
2023-03-11T01:23:17.691Z,99736.78
2023-03-11T01:25:44.201Z,99750.22
2023-03-11T01:28:11.295Z,99751.16
2023-03-11T01:30:39.960Z,99751.34
2023-03-11T01:33:07.642Z,99764.84
2023-03-11T01:35:35.426Z,99765.75
2023-03-11T01:38:01.885Z,99766.06
2023-03-11T01:40:37.332Z,99765.66
2023-03-11T01:43:06.263Z,99776.97
2023-03-11T01:45:41.756Z,99772.44
2023-03-11T01:48:09.738Z,99768.69
2023-03-11T01:50:40.387Z,99779.00
2023-03-11T01:53:07.319Z,99780.75
2023-03-11T01:55:34.195Z,99783.38
2023-03-11T01:58:03.435Z,99783.75
2023-03-11T02:00:29.917Z,99786.41
2023-03-11T02:02:58.784Z,99783.91
2023-03-11T02:05:25.672Z,99793.44
2023-03-11T02:07:54.039Z,99795.84
2023-03-11T02:10:20.756Z,99802.84
2023-03-11T02:12:49.062Z,99801.00
2023-03-11T02:15:16.447Z,99803.69
2023-03-11T02:17:43.475Z,99811.50
2023-03-11T02:20:28.770Z,99822.31
2023-03-11T02:22:57.246Z,99830.22
2023-03-11T02:25:46.058Z,99832.28
2023-03-11T02:28:14.271Z,99832.59
2023-03-11T02:30:42.647Z,99841.88
2023-03-11T02:33:09.910Z,99833.84
2023-03-11T02:35:36.935Z,99833.31
2023-03-11T02:38:03.484Z,99837.16
2023-03-11T02:41:00.420Z,99846.09
2023-03-11T02:43:43.972Z,99841.69
2023-03-11T02:46:10.900Z,99849.25
2023-03-11T02:48:37.999Z,99860.91
2023-03-11T02:51:04.840Z,99862.81
2023-03-11T02:53:35.640Z,99868.16
2023-03-11T02:56:02.106Z,99873.31
2023-03-11T02:58:28.540Z,99884.56
2023-03-11T03:00:55.142Z,99893.81
2023-03-11T03:03:21.640Z,99896.47
2023-03-11T03:05:48.255Z,99894.31
2023-03-11T03:08:14.711Z,99903.34
2023-03-11T03:10:41.193Z,99910.72
2023-03-11T03:13:07.740Z,99911.06
2023-03-11T03:15:34.241Z,99906.72
2023-03-11T03:18:00.683Z,99916.19
2023-03-11T03:20:27.185Z,99912.94
2023-03-11T03:22:53.673Z,99930.47
2023-03-11T03:25:20.141Z,99932.81
2023-03-11T03:27:46.631Z,99939.28
2023-03-11T03:30:13.236Z,99943.53
2023-03-11T03:32:39.813Z,99947.53
2023-03-11T03:35:06.972Z,99947.78
2023-03-11T03:37:35.478Z,99957.03
2023-03-11T03:40:02.418Z,99959.56
2023-03-11T03:42:29.389Z,99951.16
2023-03-11T03:44:55.844Z,99959.59
2023-03-11T03:47:22.333Z,99951.00
2023-03-11T03:49:48.898Z,99961.69
2023-03-11T03:52:15.381Z,99972.56
2023-03-11T03:54:42.040Z,99975.91
2023-03-11T03:57:08.959Z,99967.50
2023-03-11T03:59:35.642Z,99968.66
2023-03-11T04:02:02.273Z,99973.03
2023-03-11T04:04:28.868Z,99970.41
2023-03-11T04:06:55.351Z,99976.44
2023-03-11T04:09:21.890Z,99973.25
2023-03-11T04:11:48.376Z,99976.19
2023-03-11T04:14:14.865Z,99981.06
2023-03-11T04:16:41.471Z,99991.06
2023-03-11T04:19:08.130Z,99995.72
2023-03-11T04:21:34.732Z,99994.81
2023-03-11T04:24:01.323Z,100000.22
2023-03-11T04:26:28.603Z,99995.56
2023-03-11T04:28:55.083Z,99993.00
2023-03-11T04:31:21.645Z,100006.38
2023-03-11T04:33:48.359Z,100006.09
2023-03-11T04:36:14.919Z,100007.22
2023-03-11T04:38:41.370Z,100015.16
2023-03-11T04:41:08.221Z,100009.59
2023-03-11T04:43:35.024Z,100025.16
2023-03-11T04:46:01.583Z,100026.16
2023-03-11T04:48:28.166Z,100030.59
2023-03-11T04:50:55.555Z,100039.56
2023-03-11T04:53:22.710Z,100038.53
2023-03-11T04:55:50.485Z,100043.38
2023-03-11T04:58:16.969Z,100042.38
2023-03-11T05:00:43.436Z,100041.97
2023-03-11T05:03:10.078Z,100044.41
2023-03-11T05:05:36.546Z,100039.81
2023-03-11T05:08:03.580Z,100057.34
2023-03-11T05:10:31.850Z,100065.56
2023-03-11T05:12:59.199Z,100066.78
2023-03-11T05:15:25.773Z,100070.03
2023-03-11T05:17:52.269Z,100076.38
2023-03-11T05:20:18.833Z,100073.66
2023-03-11T05:22:45.334Z,100084.78
2023-03-11T05:25:11.764Z,100083.63
2023-03-11T05:27:38.271Z,100088.44
2023-03-11T05:30:05.203Z,100080.50
2023-03-11T05:32:31.748Z,100087.81
2023-03-11T05:34:58.223Z,100102.50
2023-03-11T05:37:24.722Z,100108.97
2023-03-11T05:39:52.252Z,100112.63
2023-03-11T05:42:21.258Z,100117.94
2023-03-11T05:44:47.970Z,100125.34
2023-03-11T05:47:14.464Z,100126.19
2023-03-11T05:49:40.905Z,100127.88
2023-03-11T05:52:07.370Z,100130.94
2023-03-11T05:54:33.882Z,100133.72
2023-03-11T05:57:00.316Z,100145.63
2023-03-11T05:59:26.794Z,100150.91
2023-03-11T06:01:53.319Z,100150.00
2023-03-11T06:04:20.073Z,100152.38
2023-03-11T06:06:46.754Z,100151.06
2023-03-11T06:09:14.659Z,100156.34
2023-03-11T06:11:41.778Z,100168.19
2023-03-11T06:14:11.689Z,100166.53
2023-03-11T06:16:38.236Z,100168.91
2023-03-11T06:19:04.871Z,100171.97
2023-03-11T06:21:31.620Z,100177.25
2023-03-11T06:23:58.173Z,100178.66
2023-03-11T06:26:25.003Z,100178.91
2023-03-11T06:28:52.619Z,100185.06
2023-03-11T06:31:25.175Z,100181.88
2023-03-11T06:33:51.988Z,100192.91
2023-03-11T06:36:19.722Z,100190.88
2023-03-11T06:38:46.693Z,100195.66
2023-03-11T06:41:13.252Z,100197.13
2023-03-11T06:43:39.772Z,100198.47
2023-03-11T06:46:15.354Z,100202.69
2023-03-11T06:48:42.068Z,100208.13
2023-03-11T06:51:10.339Z,100207.44
2023-03-11T06:53:36.819Z,100206.41
2023-03-11T06:56:09.320Z,100214.72
2023-03-11T06:58:37.314Z,100215.06
2023-03-11T07:01:08.398Z,100220.59
2023-03-11T07:03:34.984Z,100217.59
2023-03-11T07:06:01.508Z,100225.56
2023-03-11T07:08:28.254Z,100224.69
2023-03-11T07:11:13.161Z,100229.22
2023-03-11T07:13:39.750Z,100233.75
2023-03-11T07:16:12.027Z,100239.69
2023-03-11T07:18:38.839Z,100240.84
2023-03-11T07:21:06.752Z,100249.59
2023-03-11T07:23:34.032Z,100251.94
2023-03-11T07:26:00.536Z,100265.56
2023-03-11T07:28:28.176Z,100265.22
2023-03-11T07:30:55.060Z,100268.19
2023-03-11T07:33:24.086Z,100277.16
2023-03-11T07:35:51.427Z,100278.78
2023-03-11T07:38:19.800Z,100280.50
2023-03-11T07:40:46.441Z,100281.84
2023-03-11T07:43:12.939Z,100278.50
2023-03-11T07:45:39.442Z,100288.38
2023-03-11T07:48:06.213Z,100286.22
2023-03-11T07:50:32.692Z,100291.91
2023-03-11T07:52:59.163Z,100291.75
2023-03-11T07:55:25.604Z,100289.16
2023-03-11T07:57:52.251Z,100291.47
2023-03-11T08:00:19.397Z,100298.09
2023-03-11T08:02:46.030Z,100307.19
2023-03-11T08:05:12.681Z,100316.25
2023-03-11T08:07:39.349Z,100319.03
2023-03-11T08:10:06.851Z,100319.09
2023-03-11T08:12:33.333Z,100328.78
2023-03-11T08:14:59.799Z,100318.75
2023-03-11T08:17:26.280Z,100328.75
2023-03-11T08:19:52.967Z,100339.00
2023-03-11T08:22:19.431Z,100342.16
2023-03-11T08:24:45.865Z,100338.84
2023-03-11T08:27:12.404Z,100340.44
2023-03-11T08:29:38.962Z,100344.97
2023-03-11T08:32:05.823Z,100340.69
2023-03-11T08:34:32.971Z,100333.69
2023-03-11T08:36:59.647Z,100329.94
2023-03-11T08:39:26.160Z,100343.56
2023-03-11T08:41:52.575Z,100335.66
2023-03-11T08:44:19.034Z,100347.03
2023-03-11T08:46:45.780Z,100355.38
2023-03-11T08:49:12.330Z,100362.97
2023-03-11T08:51:38.851Z,100359.88
2023-03-11T08:54:05.525Z,100364.91
2023-03-11T08:56:31.979Z,100374.66
2023-03-11T08:58:58.481Z,100366.28
2023-03-11T09:01:25.705Z,100377.41
2023-03-11T09:03:52.582Z,100388.41
2023-03-11T09:06:19.306Z,100384.91
2023-03-11T09:08:46.912Z,100387.59
2023-03-11T09:11:13.821Z,100393.72
2023-03-11T09:13:41.483Z,100389.34
2023-03-11T09:16:16.372Z,100394.66
2023-03-11T09:18:43.203Z,100401.03
2023-03-11T09:21:10.258Z,100384.63
2023-03-11T09:23:37.106Z,100392.63
2023-03-11T09:26:03.934Z,100403.00
2023-03-11T09:28:30.446Z,100402.44
2023-03-11T09:30:57.440Z,100396.06
2023-03-11T09:33:24.091Z,100404.09
2023-03-11T09:35:50.561Z,100402.72
2023-03-11T09:38:17.058Z,100409.28
2023-03-11T09:41:00.234Z,100411.09
2023-03-11T09:43:51.767Z,100408.72
2023-03-11T09:46:35.004Z,100415.94
2023-03-11T09:49:33.748Z,100407.22
2023-03-11T09:52:11.971Z,100416.19
2023-03-11T09:54:56.955Z,100415.47
2023-03-11T09:57:26.802Z,100417.75
2023-03-11T09:59:53.412Z,100410.63
2023-03-11T10:02:22.940Z,100411.38
2023-03-11T10:05:04.253Z,100413.63
2023-03-11T10:07:38.227Z,100415.13
2023-03-11T10:10:06.120Z,100418.25
2023-03-11T10:12:51.228Z,100427.03
2023-03-11T10:15:40.474Z,100416.16
2023-03-11T10:18:44.138Z,100426.72
2023-03-11T10:21:33.742Z,100424.34
2023-03-11T10:24:21.734Z,100421.75
2023-03-11T10:26:52.124Z,100416.88
2023-03-11T10:29:31.142Z,100423.72
2023-03-11T10:32:16.231Z,100419.53
2023-03-11T10:34:48.144Z,100417.81
2023-03-11T10:37:19.410Z,100414.63
2023-03-11T10:39:48.299Z,100423.56
2023-03-11T10:42:24.690Z,100417.34
2023-03-11T10:44:52.606Z,100419.31
2023-03-11T10:47:23.092Z,100416.41
2023-03-11T10:49:50.351Z,100416.56
2023-03-11T10:52:16.851Z,100404.41
2023-03-11T10:54:46.620Z,100412.19
2023-03-11T10:57:33.435Z,100401.75
2023-03-11T11:00:01.988Z,100404.53
2023-03-11T11:02:34.255Z,100405.84
2023-03-11T11:05:20.095Z,100419.81
2023-03-11T11:07:53.355Z,100406.50
2023-03-11T11:10:25.088Z,100395.28
2023-03-11T11:12:56.348Z,100402.75
2023-03-11T11:15:37.237Z,100407.47
2023-03-11T11:18:06.927Z,100401.75
2023-03-11T11:20:34.041Z,100403.31
2023-03-11T11:23:02.188Z,100410.25
2023-03-11T11:25:35.526Z,100402.03
2023-03-11T11:28:13.204Z,100402.09
2023-03-11T11:30:59.353Z,100399.84
2023-03-11T11:33:49.416Z,100395.97
2023-03-11T11:36:16.447Z,100397.16
2023-03-11T11:38:43.251Z,100397.16
2023-03-11T11:41:14.809Z,100404.06
2023-03-11T11:43:59.463Z,100398.63
2023-03-11T11:46:38.473Z,100402.22
2023-03-11T11:49:31.781Z,100401.66
2023-03-11T11:52:11.935Z,100384.09
2023-03-11T11:54:54.475Z,100391.66
2023-03-11T11:57:22.274Z,100386.06
2023-03-11T11:59:48.846Z,100392.94
2023-03-11T12:02:33.922Z,100396.97
2023-03-11T12:05:23.824Z,100382.53
2023-03-11T12:08:12.297Z,100389.84
2023-03-11T12:10:58.038Z,100375.41
2023-03-11T12:13:33.566Z,100378.53
2023-03-11T12:16:06.386Z,100367.59
2023-03-11T12:18:35.345Z,100372.09
2023-03-11T12:21:27.509Z,100371.63
2023-03-11T12:24:06.189Z,100372.81
2023-03-11T12:26:35.829Z,100369.25
2023-03-11T12:29:22.951Z,100368.59
2023-03-11T12:31:49.774Z,100355.53
2023-03-11T12:34:19.882Z,100360.63
2023-03-11T12:36:47.257Z,100354.09
2023-03-11T12:39:28.827Z,100358.50
2023-03-11T12:42:10.921Z,100351.31
2023-03-11T12:44:38.761Z,100368.88
2023-03-11T12:47:08.291Z,100363.97
2023-03-11T12:49:37.127Z,100355.94
2023-03-11T12:52:13.310Z,100353.53
2023-03-11T12:54:41.466Z,100357.28
2023-03-11T12:57:17.362Z,100362.59
2023-03-11T12:59:52.839Z,100351.78
2023-03-11T13:02:38.107Z,100370.50
2023-03-11T13:05:16.795Z,100363.09
2023-03-11T13:07:47.809Z,100364.47
2023-03-11T13:10:17.976Z,100366.75
2023-03-11T13:12:49.327Z,100371.50
2023-03-11T13:15:19.806Z,100364.41
2023-03-11T13:18:14.622Z,100351.53
2023-03-11T13:20:44.322Z,100352.31
2023-03-11T13:23:13.927Z,100359.63
2023-03-11T13:25:43.675Z,100360.84
2023-03-11T13:28:33.987Z,100366.28
2023-03-11T13:31:38.411Z,100368.94
2023-03-11T13:34:20.530Z,100367.19
2023-03-11T13:37:17.501Z,100365.50
2023-03-11T13:40:00.175Z,100363.69
2023-03-11T13:42:38.318Z,100357.63
2023-03-11T13:45:07.582Z,100371.56
2023-03-11T13:47:35.760Z,100358.91
2023-03-11T13:50:12.732Z,100360.47
2023-03-11T13:52:47.616Z,100363.88
2023-03-11T13:55:52.539Z,100356.69
2023-03-11T13:58:24.316Z,100364.50
2023-03-11T14:00:55.816Z,100362.75
2023-03-11T14:03:25.374Z,100355.63
2023-03-11T14:06:03.380Z,100364.13
2023-03-11T14:08:32.394Z,100363.53
2023-03-11T14:10:59.959Z,100367.84
2023-03-11T14:13:38.725Z,100378.31
2023-03-11T14:16:21.419Z,100384.00
2023-03-11T14:18:50.235Z,100377.53
2023-03-11T14:21:19.724Z,100386.72
2023-03-11T14:23:48.768Z,100387.22
2023-03-11T14:26:30.354Z,100377.56
2023-03-11T14:29:02.546Z,100391.44
2023-03-11T14:31:37.832Z,100388.22
2023-03-11T14:34:13.924Z,100387.50
2023-03-11T14:37:10.750Z,100399.84
2023-03-11T14:39:39.297Z,100416.31
2023-03-11T14:42:26.525Z,100419.06
2023-03-11T14:45:17.892Z,100408.81
2023-03-11T14:48:12.510Z,100404.75
2023-03-11T14:50:39.502Z,100412.84
2023-03-11T14:53:24.354Z,100407.91
2023-03-11T14:55:53.643Z,100408.56
2023-03-11T14:58:35.784Z,100415.41
2023-03-11T15:01:18.028Z,100397.06
2023-03-11T15:04:06.268Z,100389.00
2023-03-11T15:06:33.612Z,100387.13
2023-03-11T15:09:02.769Z,100388.63
2023-03-11T15:11:29.574Z,100386.72
2023-03-11T15:14:14.788Z,100385.03
2023-03-11T15:16:41.314Z,100380.22
2023-03-11T15:19:29.803Z,100378.56
2023-03-11T15:21:59.878Z,100372.16
2023-03-11T15:24:28.738Z,100375.66
2023-03-11T15:27:01.971Z,100370.41
2023-03-11T15:29:30.016Z,100395.88
2023-03-11T15:31:59.984Z,100383.03
2023-03-11T15:34:32.058Z,100380.94
2023-03-11T15:37:19.347Z,100372.84
2023-03-11T15:39:47.374Z,100376.34
2023-03-11T15:42:18.635Z,100377.44
2023-03-11T15:45:12.058Z,100375.66
2023-03-11T15:47:39.357Z,100374.81
2023-03-11T15:50:40.138Z,100369.19
2023-03-11T15:53:13.836Z,100374.78
2023-03-11T15:55:40.651Z,100389.34
2023-03-11T15:58:08.457Z,100380.34
2023-03-11T16:00:36.620Z,100384.16
2023-03-11T16:03:04.552Z,100393.72
2023-03-11T16:05:31.380Z,100384.31
2023-03-11T16:07:58.130Z,100389.41
2023-03-11T16:10:25.848Z,100391.16
2023-03-11T16:12:52.822Z,100382.50
2023-03-11T16:15:24.929Z,100385.03
2023-03-11T16:17:52.953Z,100386.00
2023-03-11T16:20:21.408Z,100392.38
2023-03-11T16:22:49.790Z,100391.91
2023-03-11T16:25:33.459Z,100379.72
2023-03-11T16:28:00.723Z,100390.34
2023-03-11T16:30:29.495Z,100396.03
2023-03-11T16:32:56.431Z,100391.94
2023-03-11T16:35:23.537Z,100396.28
2023-03-11T16:37:50.670Z,100391.94
2023-03-11T16:40:20.074Z,100400.78
2023-03-11T16:42:47.419Z,100394.00
2023-03-11T16:45:16.247Z,100397.94
2023-03-11T16:47:43.088Z,100411.28
2023-03-11T16:50:10.836Z,100408.19
2023-03-11T16:52:37.908Z,100416.38
2023-03-11T16:55:05.534Z,100411.84
2023-03-11T16:57:32.406Z,100420.13
2023-03-11T16:59:58.940Z,100432.00
2023-03-11T17:02:25.564Z,100443.44
2023-03-11T17:04:52.133Z,100432.13
2023-03-11T17:07:18.749Z,100446.97
2023-03-11T17:09:45.220Z,100435.31
2023-03-11T17:12:15.672Z,100447.47
2023-03-11T17:14:42.421Z,100454.97
2023-03-11T17:17:08.912Z,100480.31
2023-03-11T17:19:35.675Z,100494.72
2023-03-11T17:22:02.301Z,100492.28
2023-03-11T17:24:29.795Z,100502.75
2023-03-11T17:26:56.397Z,100512.69
2023-03-11T17:29:23.138Z,100490.16
2023-03-11T17:31:49.893Z,100500.13
2023-03-11T17:34:16.741Z,100492.97
2023-03-11T17:36:43.257Z,100494.34
2023-03-11T17:39:09.804Z,100490.56
2023-03-11T17:41:36.884Z,100475.06
2023-03-11T17:44:03.499Z,100476.88
2023-03-11T17:46:30.089Z,100491.28
2023-03-11T17:48:56.880Z,100493.41
2023-03-11T17:51:25.808Z,100489.09
2023-03-11T17:53:54.506Z,100482.56
2023-03-11T17:56:21.670Z,100499.47
2023-03-11T17:58:49.267Z,100503.19
2023-03-11T18:01:23.733Z,100498.34
2023-03-11T18:03:50.367Z,100491.69
2023-03-11T18:06:18.347Z,100490.19
2023-03-11T18:08:45.088Z,100501.97
2023-03-11T18:11:18.661Z,100506.28
2023-03-11T18:13:45.798Z,100490.25
2023-03-11T18:16:15.478Z,100495.19
2023-03-11T18:18:44.581Z,100499.69
2023-03-11T18:21:13.706Z,100497.03
2023-03-11T18:23:40.633Z,100502.41
2023-03-11T18:26:08.939Z,100498.03
2023-03-11T18:28:36.050Z,100512.38
2023-03-11T18:31:14.830Z,100514.00
2023-03-11T18:33:42.988Z,100512.97
2023-03-11T18:36:13.608Z,100511.19
2023-03-11T18:38:40.128Z,100518.78
2023-03-11T18:41:06.579Z,100522.81
2023-03-11T18:43:33.116Z,100528.28
2023-03-11T18:46:00.642Z,100523.38
2023-03-11T18:48:27.655Z,100519.22
2023-03-11T18:50:55.009Z,100528.97
2023-03-11T18:53:21.879Z,100524.88
2023-03-11T18:55:48.593Z,100533.41
2023-03-11T18:58:15.120Z,100534.06
2023-03-11T19:00:41.599Z,100539.13
2023-03-11T19:03:13.579Z,100542.47
2023-03-11T19:05:40.031Z,100537.66
2023-03-11T19:08:06.622Z,100535.84
2023-03-11T19:10:33.102Z,100540.78
2023-03-11T19:12:59.592Z,100540.28
2023-03-11T19:15:26.190Z,100549.28
2023-03-11T19:18:05.840Z,100554.97
2023-03-11T19:20:33.377Z,100551.41
2023-03-11T19:22:59.892Z,100557.66
2023-03-11T19:25:28.002Z,100555.16
2023-03-11T19:27:55.277Z,100560.66
2023-03-11T19:30:22.090Z,100569.03
2023-03-11T19:32:52.665Z,100569.31
2023-03-11T19:35:24.948Z,100577.97
2023-03-11T19:37:57.130Z,100577.13
2023-03-11T19:40:24.971Z,100581.97
2023-03-11T19:42:51.717Z,100586.50
2023-03-11T19:45:18.244Z,100592.31
2023-03-11T19:47:51.596Z,100591.09
2023-03-11T19:50:18.707Z,100585.84
2023-03-11T19:52:45.675Z,100589.22
2023-03-11T19:55:12.291Z,100589.72
2023-03-11T19:57:38.744Z,100587.41
2023-03-11T20:00:05.988Z,100584.00
2023-03-11T20:02:32.651Z,100580.56
2023-03-11T20:04:59.256Z,100587.94
2023-03-11T20:07:25.865Z,100586.78
2023-03-11T20:09:52.414Z,100605.31
2023-03-11T20:12:20.554Z,100586.44
2023-03-11T20:14:47.057Z,100600.53
2023-03-11T20:17:14.688Z,100601.59
2023-03-11T20:19:41.408Z,100609.63
2023-03-11T20:22:07.897Z,100612.94
2023-03-11T20:24:34.557Z,100614.13
2023-03-11T20:27:01.176Z,100605.13
2023-03-11T20:29:27.660Z,100610.69
2023-03-11T20:31:54.327Z,100611.03
2023-03-11T20:34:20.892Z,100611.59
2023-03-11T20:36:48.694Z,100615.88
2023-03-11T20:39:15.233Z,100617.78
2023-03-11T20:41:41.986Z,100622.69
2023-03-11T20:44:12.169Z,100620.53
2023-03-11T20:46:38.690Z,100626.50
2023-03-11T20:49:05.440Z,100625.88
2023-03-11T20:51:32.075Z,100624.38
2023-03-11T20:53:58.842Z,100621.72
2023-03-11T20:56:26.782Z,100620.88
2023-03-11T20:58:55.824Z,100615.53
2023-03-11T21:01:25.389Z,100621.44
2023-03-11T21:03:57.078Z,100622.94
2023-03-11T21:06:26.438Z,100629.94
2023-03-11T21:08:54.542Z,100627.88
2023-03-11T21:11:21.474Z,100625.66
2023-03-11T21:13:47.930Z,100625.59
2023-03-11T21:16:16.857Z,100620.16
2023-03-11T21:18:44.483Z,100630.59
2023-03-11T21:21:12.587Z,100641.78
2023-03-11T21:23:40.994Z,100637.75
2023-03-11T21:26:07.924Z,100637.47
2023-03-11T21:28:35.560Z,100624.84
2023-03-11T21:31:09.122Z,100635.41
2023-03-11T21:33:36.201Z,100642.06
2023-03-11T21:36:04.549Z,100642.13
2023-03-11T21:38:32.622Z,100642.66
2023-03-11T21:41:26.243Z,100642.00
2023-03-11T21:43:55.243Z,100642.06
2023-03-11T21:46:24.940Z,100646.06
2023-03-11T21:48:52.155Z,100635.56
2023-03-11T21:51:20.102Z,100645.00
2023-03-11T21:53:47.505Z,100637.56
2023-03-11T21:56:15.201Z,100641.41
2023-03-11T21:58:42.101Z,100659.59
2023-03-11T22:01:10.059Z,100664.50
2023-03-11T22:03:37.452Z,100668.53
2023-03-11T22:06:07.034Z,100666.56
2023-03-11T22:08:33.963Z,100678.97
2023-03-11T22:11:00.880Z,100672.50
2023-03-11T22:13:27.517Z,100680.59
2023-03-11T22:15:54.186Z,100685.13
2023-03-11T22:18:23.591Z,100682.16
2023-03-11T22:20:50.617Z,100681.59
2023-03-11T22:23:17.254Z,100673.88
2023-03-11T22:25:43.903Z,100667.13
2023-03-11T22:28:13.158Z,100673.09
2023-03-11T22:30:39.785Z,100669.66
2023-03-11T22:33:07.079Z,100672.31
2023-03-11T22:35:34.708Z,100684.06
2023-03-11T22:38:01.657Z,100679.81
2023-03-11T22:40:28.400Z,100678.44
2023-03-11T22:42:55.285Z,100675.06
2023-03-11T22:45:23.141Z,100678.09
2023-03-11T22:47:53.336Z,100682.78
2023-03-11T22:50:20.409Z,100692.91
2023-03-11T22:52:46.920Z,100686.94
2023-03-11T22:55:13.408Z,100695.13
2023-03-11T22:57:39.847Z,100692.63
2023-03-11T23:00:17.274Z,100691.97
2023-03-11T23:02:48.256Z,100692.00
2023-03-11T23:05:16.061Z,100696.09
2023-03-11T23:07:43.571Z,100697.34
2023-03-11T23:10:11.936Z,100695.75
2023-03-11T23:12:38.826Z,100701.38
2023-03-11T23:15:07.961Z,100709.66
2023-03-11T23:17:35.062Z,100714.38
2023-03-11T23:20:01.942Z,100717.56
2023-03-11T23:22:28.472Z,100717.41
2023-03-11T23:24:54.938Z,100718.63
2023-03-11T23:27:22.277Z,100722.22
2023-03-11T23:29:51.141Z,100720.69
2023-03-11T23:32:24.117Z,100710.63
2023-03-11T23:34:50.659Z,100720.50
2023-03-11T23:37:17.180Z,100719.19
2023-03-11T23:39:43.648Z,100722.50
2023-03-11T23:42:24.529Z,100717.19
2023-03-11T23:44:53.705Z,100720.06
2023-03-11T23:47:20.605Z,100720.19
2023-03-11T23:49:47.069Z,100718.50
2023-03-11T23:52:13.587Z,100720.38
2023-03-11T23:54:40.036Z,100726.53
2023-03-11T23:57:06.503Z,100736.09
2023-03-11T23:59:33.028Z,100735.28
